Time,TemperatureF,DewpointF,PressureIn,WindDirection,WindDirectionDegrees,WindSpeedMPH,WindSpeedGustMPH,Humidity,HourlyPrecipIn,Conditions,Clouds,dailyrainin,SoftwareType,DateUTC
2013-07-08 00:10:00,74.5,73.6,29.98,SSE,157,2.2,-999.0,97,-99.99,,,0.00,Acu-Link.com,2013-07-08 05:10:00,
2013-07-08 00:26:00,74.3,73.4,29.98,ESE,112,1.6,-999.0,97,-99.99,,,0.00,Acu-Link.com,2013-07-08 05:26:00,
2013-07-08 00:41:00,74.1,73.2,29.98,ESE,112,2.2,-999.0,97,-99.99,,,0.00,Acu-Link.com,2013-07-08 05:41:00,
2013-07-08 00:56:00,73.9,73.3,29.98,SSE,157,1.6,-999.0,98,-99.99,,,0.00,Acu-Link.com,2013-07-08 05:56:00,
2013-07-08 01:11:00,73.8,73.2,29.97,SE,135,2.2,-999.0,98,-99.99,,,0.00,Acu-Link.com,2013-07-08 06:11:00,
2013-07-08 01:27:00,73.4,72.8,29.98,NNE,22,0.0,-999.0,98,-99.99,,,0.00,Acu-Link.com,2013-07-08 06:27:00,
2013-07-08 01:42:00,73.2,72.6,29.98,ESE,112,0.0,-999.0,98,-99.99,,,0.00,Acu-Link.com,2013-07-08 06:42:00,
2013-07-08 01:57:00,73.2,72.9,29.97,ENE,67,1.6,-999.0,99,-99.99,,,0.00,Acu-Link.com,2013-07-08 06:57:00,
2013-07-08 02:12:00,73.0,72.7,29.97,NNE,22,0.0,-999.0,99,-99.99,,,0.00,Acu-Link.com,2013-07-08 07:12:00,
2013-07-08 02:28:00,72.9,72.6,29.97,SE,135,0.0,-999.0,99,-99.99,,,0.00,Acu-Link.com,2013-07-08 07:28:00,
2013-07-08 02:43:00,72.9,72.6,29.97,SE,135,0.0,-999.0,99,-99.99,,,0.00,Acu-Link.com,2013-07-08 07:43:00,
2013-07-08 02:58:00,73.0,72.7,29.97,ESE,112,1.6,-999.0,99,-99.99,,,0.00,Acu-Link.com,2013-07-08 07:58:00,
2013-07-08 03:13:00,73.0,72.7,29.97,ESE,112,2.7,-999.0,99,-99.99,,,0.00,Acu-Link.com,2013-07-08 08:13:00,
2013-07-08 03:29:00,73.0,72.7,29.98,ESE,112,3.1,-999.0,99,-99.99,,,0.00,Acu-Link.com,2013-07-08 08:29:00,
2013-07-08 03:44:00,72.9,72.6,29.98,ESE,112,0.0,-999.0,99,-99.99,,,0.00,Acu-Link.com,2013-07-08 08:44:00,
2013-07-08 03:59:00,73.0,72.7,29.98,East,90,0.0,-999.0,99,-99.99,,,0.00,Acu-Link.com,2013-07-08 08:59:00,
2013-07-08 04:14:00,73.0,72.7,29.99,SE,135,2.2,-999.0,99,-99.99,,,0.00,Acu-Link.com,2013-07-08 09:14:00,
2013-07-08 04:29:00,72.9,72.6,30.00,SSE,157,0.0,-999.0,99,-99.99,,,0.00,Acu-Link.com,2013-07-08 09:29:00,
2013-07-08 04:44:00,72.5,72.2,30.00,SSW,202,0.0,-999.0,99,-99.99,,,0.00,Acu-Link.com,2013-07-08 09:44:00,
2013-07-08 05:00:00,72.0,71.7,30.01,NW,315,0.0,-999.0,99,-99.99,,,0.00,Acu-Link.com,2013-07-08 10:00:00,
2013-07-08 05:15:00,71.6,71.3,30.02,NNE,22,0.0,-999.0,99,-99.99,,,0.00,Acu-Link.com,2013-07-08 10:15:00,
2013-07-08 05:30:00,71.4,71.1,30.02,NE,45,0.0,-999.0,99,-99.99,,,0.00,Acu-Link.com,2013-07-08 10:30:00,
2013-07-08 05:45:00,71.1,70.8,30.03,West,270,0.0,-999.0,99,-99.99,,,0.00,Acu-Link.com,2013-07-08 10:45:00,
2013-07-08 06:01:00,71.1,70.8,30.02,South,180,0.0,-999.0,99,-99.99,,,0.00,Acu-Link.com,2013-07-08 11:01:00,
2013-07-08 06:16:00,70.7,70.4,30.03,North,0,0.0,-999.0,99,-99.99,,,0.00,Acu-Link.com,2013-07-08 11:16:00,
2013-07-08 06:31:00,70.7,70.4,30.04,NNE,22,0.0,-999.0,99,-99.99,,,0.00,Acu-Link.com,2013-07-08 11:31:00,
2013-07-08 06:46:00,70.9,70.6,30.04,NW,315,0.0,-999.0,99,-99.99,,,0.00,Acu-Link.com,2013-07-08 11:46:00,
2013-07-08 07:02:00,71.1,70.8,30.05,NNW,337,0.0,-999.0,99,-99.99,,,0.00,Acu-Link.com,2013-07-08 12:02:00,
2013-07-08 07:17:00,72.0,71.7,30.05,NNE,22,0.0,-999.0,99,-99.99,,,0.00,Acu-Link.com,2013-07-08 12:17:00,
2013-07-08 07:32:00,73.2,72.9,30.05,NE,45,0.0,-999.0,99,-99.99,,,0.00,Acu-Link.com,2013-07-08 12:32:00,
2013-07-08 07:47:00,74.5,74.2,30.06,NE,45,0.0,-999.0,99,-99.99,,,0.00,Acu-Link.com,2013-07-08 12:47:00,
2013-07-08 08:02:00,75.0,74.7,30.07,NE,45,2.2,-999.0,99,-99.99,,,0.00,Acu-Link.com,2013-07-08 13:02:00,
2013-07-08 08:18:00,77.7,75.5,30.07,NNE,22,0.0,-999.0,93,-99.99,,,0.00,Acu-Link.com,2013-07-08 13:18:00,
2013-07-08 08:33:00,82.0,76.0,30.07,ESE,112,0.0,-999.0,82,-99.99,,,0.00,Acu-Link.com,2013-07-08 13:33:00,
2013-07-08 08:48:00,83.8,76.6,30.08,South,180,2.7,-999.0,79,-99.99,,,0.00,Acu-Link.com,2013-07-08 13:48:00,
2013-07-08 09:03:00,85.8,77.0,30.08,WNW,292,1.6,-999.0,75,-99.99,,,0.00,Acu-Link.com,2013-07-08 14:03:00,
2013-07-08 09:18:00,87.3,77.5,30.08,SSW,202,2.7,-999.0,73,-99.99,,,0.00,Acu-Link.com,2013-07-08 14:18:00,
2013-07-08 09:34:00,88.0,77.4,30.08,South,180,2.7,-999.0,71,-99.99,,,0.00,Acu-Link.com,2013-07-08 14:34:00,
2013-07-08 09:49:00,87.6,77.4,30.08,ESE,112,1.6,-999.0,72,-99.99,,,0.00,Acu-Link.com,2013-07-08 14:49:00,
2013-07-08 10:04:00,86.9,78.0,30.07,SE,135,3.1,-999.0,75,-99.99,,,0.00,Acu-Link.com,2013-07-08 15:04:00,
2013-07-08 10:19:00,87.8,78.0,30.07,SE,135,2.2,-999.0,73,-99.99,,,0.00,Acu-Link.com,2013-07-08 15:19:00,
2013-07-08 10:34:00,88.7,78.1,30.07,SSE,157,3.8,-999.0,71,-99.99,,,0.00,Acu-Link.com,2013-07-08 15:34:00,
2013-07-08 10:50:00,93.2,79.2,30.07,ESE,112,4.3,-999.0,64,-99.99,,,0.00,Acu-Link.com,2013-07-08 15:50:00,
2013-07-08 11:05:00,93.0,78.0,30.08,SSE,157,2.7,-999.0,62,-99.99,,,0.00,Acu-Link.com,2013-07-08 16:05:00,
2013-07-08 11:20:00,92.7,77.7,30.07,SE,135,2.7,-999.0,62,-99.99,,,0.00,Acu-Link.com,2013-07-08 16:20:00,
2013-07-08 11:35:00,92.3,77.4,30.07,South,180,2.7,-999.0,62,-99.99,,,0.00,Acu-Link.com,2013-07-08 16:35:00,
2013-07-08 11:51:00,91.0,76.7,30.08,ESE,112,4.3,-999.0,63,-99.99,,,0.00,Acu-Link.com,2013-07-08 16:51:00,
2013-07-08 12:06:00,93.6,77.0,30.08,NNE,22,0.0,-999.0,59,-99.99,,,0.00,Acu-Link.com,2013-07-08 17:06:00,
2013-07-08 12:21:00,92.1,77.7,30.08,NE,45,2.2,-999.0,63,-99.99,,,0.00,Acu-Link.com,2013-07-08 17:21:00,
2013-07-08 12:36:00,88.5,76.6,30.07,NE,45,0.0,-999.0,68,-99.99,,,0.00,Acu-Link.com,2013-07-08 17:36:00,
2013-07-08 12:52:00,91.2,77.8,30.06,SE,135,3.8,-999.0,65,-99.99,,,0.00,Acu-Link.com,2013-07-08 17:52:00,
2013-07-08 13:07:00,92.3,77.8,30.05,South,180,2.7,-999.0,63,-99.99,,,0.00,Acu-Link.com,2013-07-08 18:07:00,
2013-07-08 13:38:00,91.6,75.2,30.05,SE,135,7.8,-999.0,59,-99.99,,,0.00,Acu-Link.com,2013-07-08 18:38:00,
2013-07-08 14:08:00,94.6,74.8,30.04,SE,135,6.3,-999.0,53,-99.99,,,0.00,Acu-Link.com,2013-07-08 19:08:00,
2013-07-08 14:39:00,93.6,78.5,30.03,SE,135,4.7,-999.0,62,-99.99,,,0.00,Acu-Link.com,2013-07-08 19:39:00,
2013-07-08 14:54:00,93.4,76.3,30.04,SW,225,6.7,-999.0,58,-99.99,,,0.00,Acu-Link.com,2013-07-08 19:54:00,
2013-07-08 15:25:00,93.2,76.2,30.02,SW,225,11.4,-999.0,58,-99.99,,,0.00,Acu-Link.com,2013-07-08 20:25:00,
2013-07-08 15:55:00,94.5,76.3,30.02,South,180,6.7,-999.0,56,-99.99,,,0.00,Acu-Link.com,2013-07-08 20:55:00,
2013-07-08 16:11:00,94.6,75.4,30.02,SW,225,5.8,-999.0,54,-99.99,,,0.00,Acu-Link.com,2013-07-08 21:11:00,
2013-07-08 16:26:00,87.3,77.5,30.03,SSE,157,6.3,-999.0,73,-99.99,,,0.00,Acu-Link.com,2013-07-08 21:26:00,
2013-07-08 16:41:00,85.1,76.7,30.03,ESE,112,3.1,-999.0,76,-99.99,,,0.00,Acu-Link.com,2013-07-08 21:41:00,
2013-07-08 16:56:00,82.9,76.1,30.03,South,180,4.7,-999.0,80,-99.99,,,0.00,Acu-Link.com,2013-07-08 21:56:00,
2013-07-08 17:12:00,85.5,77.4,30.03,ESE,112,4.7,-999.0,77,-99.99,,,0.00,Acu-Link.com,2013-07-08 22:12:00,
2013-07-08 17:27:00,84.0,76.0,30.03,SSW,202,2.7,-999.0,77,-99.99,,,0.00,Acu-Link.com,2013-07-08 22:27:00,
2013-07-08 17:42:00,85.3,77.2,30.03,ESE,112,4.7,-999.0,77,-99.99,,,0.00,Acu-Link.com,2013-07-08 22:42:00,
2013-07-08 18:28:00,81.1,74.4,30.02,SSE,157,6.7,-999.0,80,-99.99,,,0.00,Acu-Link.com,2013-07-08 23:28:00,
2013-07-08 18:44:00,80.8,74.8,30.02,ESE,112,3.1,-999.0,82,-99.99,,,0.00,Acu-Link.com,2013-07-08 23:44:00,
2013-07-08 18:59:00,79.5,74.2,30.02,SSE,157,4.7,-999.0,84,-99.99,,,0.00,Acu-Link.com,2013-07-08 23:59:00,
2013-07-08 19:14:00,79.2,74.2,30.03,SSE,157,3.8,-999.0,85,-99.99,,,0.00,Acu-Link.com,2013-07-09 00:14:00,
2013-07-08 19:29:00,79.2,74.2,30.03,SSE,157,2.2,-999.0,85,-99.99,,,0.00,Acu-Link.com,2013-07-09 00:29:00,
2013-07-08 19:45:00,78.8,74.2,30.03,SW,225,0.0,-999.0,86,-99.99,,,0.00,Acu-Link.com,2013-07-09 00:45:00,
2013-07-08 20:00:00,78.4,74.6,30.03,NW,315,0.0,-999.0,88,-99.99,,,0.00,Acu-Link.com,2013-07-09 01:00:00,
2013-07-08 20:15:00,78.1,74.6,30.02,ESE,112,0.0,-999.0,89,-99.99,,,0.00,Acu-Link.com,2013-07-09 01:15:00,
2013-07-08 20:30:00,77.5,74.4,30.03,South,180,0.0,-999.0,90,-99.99,,,0.00,Acu-Link.com,2013-07-09 01:30:00,
2013-07-08 20:46:00,76.8,74.6,30.03,NW,315,0.0,-999.0,93,-99.99,,,0.00,Acu-Link.com,2013-07-09 01:46:00,
2013-07-08 21:01:00,76.3,74.1,30.03,ENE,67,0.0,-999.0,93,-99.99,,,0.00,Acu-Link.com,2013-07-09 02:01:00,
2013-07-08 21:16:00,75.9,74.1,30.03,WSW,247,0.0,-999.0,94,-99.99,,,0.00,Acu-Link.com,2013-07-09 02:16:00,
2013-07-08 21:32:00,75.7,74.2,30.03,SE,135,0.0,-999.0,95,-99.99,,,0.00,Acu-Link.com,2013-07-09 02:32:00,
2013-07-08 21:47:00,75.6,74.0,30.03,NW,315,0.0,-999.0,95,-99.99,,,0.00,Acu-Link.com,2013-07-09 02:47:00,
2013-07-08 22:02:00,75.4,74.2,30.04,ESE,112,0.0,-999.0,96,-99.99,,,0.00,Acu-Link.com,2013-07-09 03:02:00,
2013-07-08 22:17:00,75.4,74.2,30.05,ESE,112,0.0,-999.0,96,-99.99,,,0.00,Acu-Link.com,2013-07-09 03:17:00,
2013-07-08 22:47:00,75.6,74.3,30.06,ESE,112,0.0,-999.0,96,-99.99,,,0.00,Acu-Link.com,2013-07-09 03:47:00,
2013-07-08 23:03:00,75.6,74.6,30.06,SSE,157,0.0,-999.0,97,-99.99,,,0.00,Acu-Link.com,2013-07-09 04:03:00,
2013-07-08 23:18:00,75.4,74.5,30.06,ENE,67,0.0,-999.0,97,-99.99,,,0.00,Acu-Link.com,2013-07-09 04:18:00,
2013-07-08 23:33:00,75.2,74.3,30.06,East,90,0.0,-999.0,97,-99.99,,,0.00,Acu-Link.com,2013-07-09 04:33:00,
2013-07-08 23:49:00,75.0,74.1,30.06,WSW,247,0.0,-999.0,97,-99.99,,,0.00,Acu-Link.com,2013-07-09 04:49:00,